Time;durP1;ratioP1;P1;durP2;ratioP2;P2;SDS_P1;SDS_P2;PMS_P1;PMS_P2;Temp;Humidity;BMP_temperature;BMP_pressure;BME280_temperature;BME280_humidity;BME280_pressure;Samples;Min_cycle;Max_cycle;Signal;HPM_P1;HPM_P2
2023/05/08 00:01:31;;;;;;;;;;;;;;;;;;;;;
2023/05/08 00:03:57;;;;;;;4.40;4.10;;;9.80;1.00;;;;;;5074540;28;20658;-70
2023/05/08 00:06:23;;;;;;;5.30;4.80;;;9.80;1.00;;;;;;5075277;28;20461;-70
2023/05/08 00:08:48;;;;;;;6.20;5.07;;;9.90;1.00;;;;;;5057657;28;20431;-71
2023/05/08 00:11:14;;;;;;;5.33;4.87;;;9.90;1.00;;;;;;5074521;28;20535;-71
2023/05/08 00:13:40;;;;;;;4.23;3.77;;;9.80;1.00;;;;;;5056857;28;20681;-70
2023/05/08 00:16:21;;;;;;;;;;;;;;;;;;;;;
2023/05/08 00:19:08;;;;;;;4.80;4.40;;;9.70;1.00;;;;;;5069251;28;20551;-68
2023/05/08 00:21:34;;;;;;;4.47;4.17;;;9.70;1.00;;;;;;5053890;28;20503;-68
2023/05/08 00:23:59;;;;;;;5.33;4.93;;;9.70;1.00;;;;;;5046966;28;20854;-70
2023/05/08 00:26:25;;;;;;;4.63;4.20;;;9.70;1.00;;;;;;5074889;28;20500;-71
2023/05/08 00:28:51;;;;;;;4.70;4.27;;;9.60;1.00;;;;;;5075153;28;20554;-67
2023/05/08 00:31:17;;;;;;;5.00;4.50;;;9.60;1.00;;;;;;5074142;28;20195;-68
2023/05/08 00:33:43;;;;;;;4.07;3.77;;;9.60;1.00;;;;;;5073542;28;20553;-68
2023/05/08 00:36:09;;;;;;;5.90;4.63;;;9.60;1.00;;;;;;5074728;28;20179;-68
2023/05/08 00:38:36;;;;;;;5.47;4.97;;;9.60;1.00;;;;;;5074792;28;20416;-68
2023/05/08 00:41:01;;;;;;;4.23;3.93;;;9.50;1.00;;;;;;5072506;28;20200;-70
2023/05/08 00:43:28;;;;;;;4.93;4.50;;;9.50;1.00;;;;;;5073872;28;20493;-68
2023/05/08 00:45:55;;;;;;;5.27;4.80;;;9.50;1.00;;;;;;5074662;28;20177;-70
2023/05/08 00:48:24;;;;;;;5.17;4.77;;;9.40;1.00;;;;;;5056755;28;20848;-68
2023/05/08 00:50:52;;;;;;;5.00;4.60;;;9.40;1.00;;;;;;5055967;28;20424;-70
2023/05/08 00:53:19;;;;;;;5.10;4.70;;;9.40;1.00;;;;;;5073860;28;20436;-70
2023/05/08 00:55:46;;;;;;;4.83;4.43;;;9.40;1.00;;;;;;5074461;28;20438;-68
2023/05/08 00:58:13;;;;;;;5.00;4.07;;;9.40;1.00;;;;;;5055606;28;20534;-68
2023/05/08 01:00:41;;;;;;;4.73;4.43;;;9.40;1.00;;;;;;5073189;28;20514;-70
2023/05/08 01:03:08;;;;;;;4.83;4.53;;;9.40;1.00;;;;;;5056604;28;20432;-70
2023/05/08 01:05:35;;;;;;;5.30;4.80;;;9.30;1.00;;;;;;5056318;28;20414;-68
2023/05/08 01:08:01;;;;;;;4.47;4.07;;;9.30;1.00;;;;;;5056187;28;20411;-68
2023/05/08 01:10:37;;;;;;;5.50;5.00;;;9.30;1.00;;;;;;5072664;28;20408;-68
2023/05/08 01:13:13;;;;;;;4.77;4.37;;;9.30;1.00;;;;;;5072878;28;21034;-71
2023/05/08 01:15:56;;;;;;;5.70;5.30;;;9.30;1.00;;;;;;5074078;28;20383;-71
2023/05/08 01:18:58;;;;;;;4.43;4.10;;;9.20;1.00;;;;;;5073966;28;20526;-70
2023/05/08 01:21:27;;;;;;;4.73;4.33;;;9.20;1.00;;;;;;5069684;28;20526;-70
2023/05/08 01:24:13;;;;;;;4.67;4.37;;;9.20;1.00;;;;;;5055877;28;20527;-67
2023/05/08 01:26:58;;;;;;;4.60;4.10;;;9.20;1.00;;;;;;5032082;28;20419;-70
2023/05/08 01:29:47;;;;;;;5.73;5.33;;;9.20;1.00;;;;;;5053376;28;20472;-68
2023/05/08 01:32:35;;;;;;;4.50;4.20;;;9.20;1.00;;;;;;5052964;28;20525;-70
2023/05/08 01:35:06;;;;;;;4.83;4.43;;;9.10;1.00;;;;;;5053591;28;20511;-70
2023/05/08 01:37:39;;;;;;;4.97;4.57;;;9.10;1.00;;;;;;5055179;28;20444;-67
2023/05/08 01:40:22;;;;;;;3.93;3.63;;;9.10;1.00;;;;;;5072989;28;20411;-69
2023/05/08 01:43:17;;;;;;;4.40;4.10;;;9.10;1.00;;;;;;5073464;28;20477;-68
2023/05/08 01:45:49;;;;;;;5.17;4.30;;;9.10;1.00;;;;;;5072560;28;20414;-68
2023/05/08 01:48:24;;;;;;;4.83;4.43;;;9.10;1.00;;;;;;5072657;28;20769;-67
2023/05/08 01:50:57;;;;;;;4.83;4.27;;;9.00;1.00;;;;;;5072061;28;20402;-68
2023/05/08 01:53:27;;;;;;;12.73;4.70;;;9.00;1.00;;;;;;5073410;28;20928;-67
2023/05/08 01:55:57;;;;;;;7.00;4.33;;;9.10;1.00;;;;;;5073666;28;20488;-70
2023/05/08 01:58:24;;;;;;;5.10;4.57;;;9.10;1.00;;;;;;5054757;28;20408;-68
2023/05/08 02:00:51;;;;;;;5.03;4.37;;;9.10;1.00;;;;;;5072281;28;20478;-68
2023/05/08 02:03:20;;;;;;;4.40;4.10;;;9.00;1.00;;;;;;5054839;28;20820;-70
2023/05/08 02:05:49;;;;;;;4.73;4.43;;;9.00;1.00;;;;;;5073412;28;20406;-70
2023/05/08 02:08:16;;;;;;;3.70;3.50;;;9.00;1.00;;;;;;5073254;28;20872;-70
2023/05/08 02:10:43;;;;;;;4.80;4.50;;;9.00;1.00;;;;;;5072384;28;20481;-70
2023/05/08 02:13:10;;;;;;;4.60;4.20;;;9.00;1.00;;;;;;5071009;28;20427;-69
2023/05/08 02:15:37;;;;;;;4.67;4.27;;;9.00;1.00;;;;;;5073508;28;20410;-67
2023/05/08 02:18:05;;;;;;;4.90;3.83;;;8.90;1.00;;;;;;5073309;28;20870;-68
2023/05/08 02:20:32;;;;;;;5.13;4.73;;;8.90;1.00;;;;;;5072153;28;20444;-70
2023/05/08 02:22:59;;;;;;;7.70;4.07;;;8.90;1.00;;;;;;5072587;28;20842;-70
2023/05/08 02:25:28;;;;;;;5.20;4.80;;;8.90;1.00;;;;;;5073135;28;20901;-67
2023/05/08 02:27:55;;;;;;;4.87;4.47;;;8.90;1.00;;;;;;5072354;28;20438;-68
2023/05/08 02:30:23;;;;;;;5.20;4.70;;;8.80;1.00;;;;;;5054214;28;20972;-71
2023/05/08 02:32:50;;;;;;;5.23;4.73;;;8.80;1.00;;;;;;5072951;28;20435;-70
2023/05/08 02:35:18;;;;;;;5.03;4.53;;;8.70;1.00;;;;;;5073062;28;20407;-70
2023/05/08 02:37:47;;;;;;;7.20;4.50;;;8.70;1.00;;;;;;5073105;28;20906;-68
2023/05/08 02:40:14;;;;;;;4.53;4.23;;;8.70;1.00;;;;;;5071789;28;20464;-68
2023/05/08 02:42:40;;;;;;;5.03;4.53;;;8.70;1.00;;;;;;5072283;28;20455;-68
2023/05/08 02:45:06;;;;;;;5.33;4.93;;;8.70;1.00;;;;;;5073068;28;20405;-68
2023/05/08 02:47:42;;;;;;;5.50;5.10;;;8.70;1.00;;;;;;5073029;28;20418;-70
2023/05/08 02:50:18;;;;;;;5.63;5.23;;;8.70;1.00;;;;;;5071316;28;20412;-68
2023/05/08 02:52:49;;;;;;;4.20;3.90;;;8.60;1.00;;;;;;5055186;28;20529;-70
2023/05/08 02:55:22;;;;;;;5.43;5.03;;;8.60;1.00;;;;;;5072545;28;20403;-70
2023/05/08 02:58:01;;;;;;;5.37;4.87;;;8.60;1.00;;;;;;5055146;28;20441;-68
2023/05/08 03:00:34;;;;;;;6.93;4.63;;;8.60;1.00;;;;;;5072199;28;20502;-68
2023/05/08 03:03:07;;;;;;;4.90;4.60;;;8.60;1.00;;;;;;5075601;28;20397;-67
2023/05/08 03:05:34;;;;;;;4.70;4.40;;;8.50;1.00;;;;;;5075843;28;20463;-70
2023/05/08 03:08:05;;;;;;;5.10;4.57;;;8.50;1.00;;;;;;5076684;28;20408;-70
2023/05/08 03:10:36;;;;;;;5.90;5.30;;;8.40;1.00;;;;;;5075610;28;20431;-70
2023/05/08 03:13:08;;;;;;;6.17;5.50;;;8.40;1.00;;;;;;5076256;28;20399;-71
2023/05/08 03:15:52;;;;;;;5.33;4.97;;;8.40;1.00;;;;;;5075739;28;20412;-70
2023/05/08 03:18:22;;;;;;;5.67;5.30;;;8.40;1.00;;;;;;5073868;28;20495;-68
2023/05/08 03:20:53;;;;;;;5.80;5.40;;;8.40;1.00;;;;;;5055409;28;20468;-67
2023/05/08 03:23:21;;;;;;;5.30;4.80;;;8.40;1.00;;;;;;5055943;28;20892;-68
2023/05/08 03:25:47;;;;;;;5.83;5.33;;;8.30;1.00;;;;;;5038088;28;20778;-68
2023/05/08 03:28:14;;;;;;;5.33;4.93;;;8.30;1.00;;;;;;5056042;28;20405;-70
2023/05/08 03:30:42;;;;;;;5.90;5.40;;;8.40;1.00;;;;;;5055152;28;20174;-67
2023/05/08 03:33:10;;;;;;;4.57;4.30;;;8.40;1.00;;;;;;5057896;28;20463;-70
2023/05/08 03:35:37;;;;;;;5.87;5.17;;;8.40;1.00;;;;;;5075501;28;20906;-70
2023/05/08 03:38:04;;;;;;;6.43;5.80;;;8.40;1.00;;;;;;5076019;28;20405;-70
2023/05/08 03:40:30;;;;;;;5.60;5.17;;;8.40;1.00;;;;;;5075176;28;20449;-67
2023/05/08 03:42:57;;;;;;;6.03;5.63;;;8.40;1.00;;;;;;5057732;28;20441;-70
2023/05/08 03:45:24;;;;;;;5.80;5.10;;;8.40;1.00;;;;;;5075824;28;20840;-67
2023/05/08 03:47:52;;;;;;;6.83;4.73;;;8.40;1.00;;;;;;5074929;28;20416;-70
2023/05/08 03:50:19;;;;;;;6.03;5.43;;;8.40;1.00;;;;;;5074894;28;20444;-70
2023/05/08 03:52:45;;;;;;;8.20;5.30;;;8.40;1.00;;;;;;5075519;28;20519;-70
2023/05/08 03:55:10;;;;;;;5.97;5.47;;;8.40;1.00;;;;;;5075303;28;20404;-70
2023/05/08 03:57:49;;;;;;;6.43;5.90;;;8.40;1.00;;;;;;5075609;28;20407;-67
2023/05/08 04:00:21;;;;;;;5.17;4.87;;;8.40;1.00;;;;;;5074538;28;20202;-70
2023/05/08 04:02:56;;;;;;;5.87;5.47;;;8.40;1.00;;;;;;5074492;28;20448;-70
2023/05/08 04:05:30;;;;;;;5.30;4.90;;;8.40;1.00;;;;;;5075399;28;20402;-67
2023/05/08 04:08:21;;;;;;;6.00;5.00;;;8.40;1.00;;;;;;5075280;28;20403;-67
2023/05/08 04:10:57;;;;;;;5.67;5.07;;;8.40;1.00;;;;;;5074464;28;20896;-70
2023/05/08 04:13:28;;;;;;;14.13;5.00;;;8.50;1.00;;;;;;5073171;28;20812;-68
2023/05/08 04:16:22;;;;;;;7.37;6.67;;;8.50;1.00;;;;;;5075198;28;20885;-69
2023/05/08 04:18:52;;;;;;;5.40;4.97;;;8.50;1.00;;;;;;5075363;28;20512;-70
2023/05/08 04:21:23;;;;;;;5.07;4.70;;;8.50;1.00;;;;;;5056366;28;20460;-67
2023/05/08 04:23:51;;;;;;;5.53;5.03;;;8.50;1.00;;;;;;5074865;28;20413;-68
2023/05/08 04:26:17;;;;;;;5.77;5.00;;;8.50;1.00;;;;;;5074841;28;20492;-67
2023/05/08 04:28:45;;;;;;;5.33;4.83;;;8.50;1.00;;;;;;5056215;28;20815;-70
2023/05/08 04:31:15;;;;;;;6.43;5.23;;;8.60;1.00;;;;;;5073511;28;20397;-70
2023/05/08 04:33:45;;;;;;;6.57;5.90;;;8.60;1.00;;;;;;5074665;28;20423;-68
2023/05/08 04:36:13;;;;;;;5.53;5.10;;;8.60;1.00;;;;;;5074579;28;20432;-67
2023/05/08 04:38:39;;;;;;;5.17;4.80;;;8.60;1.00;;;;;;5074652;28;20409;-70
2023/05/08 04:41:06;;;;;;;6.07;4.93;;;8.60;1.00;;;;;;5055851;28;20459;-70
2023/05/08 04:43:33;;;;;;;6.07;5.47;;;8.60;1.00;;;;;;5073845;28;20486;-70
2023/05/08 04:45:58;;;;;;;5.27;4.87;;;8.60;1.00;;;;;;5074724;28;20389;-68
2023/05/08 04:48:24;;;;;;;4.50;4.20;;;8.70;1.00;;;;;;5074660;28;20409;-68
2023/05/08 04:50:50;;;;;;;5.10;4.60;;;8.70;1.00;;;;;;5073235;28;20178;-68
2023/05/08 04:53:16;;;;;;;5.10;4.80;;;8.70;1.00;;;;;;5071295;28;20446;-72
2023/05/08 04:55:41;;;;;;;6.87;5.00;;;8.70;1.00;;;;;;5071658;28;20543;-71
2023/05/08 04:58:09;;;;;;;4.77;4.47;;;8.80;1.00;;;;;;5074358;28;20256;-72
2023/05/08 05:00:35;;;;;;;5.13;4.73;;;8.80;1.00;;;;;;5073309;28;20582;-67
2023/05/08 05:03:01;;;;;;;4.67;4.37;;;8.90;1.00;;;;;;5074327;28;20422;-71
2023/05/08 05:05:26;;;;;;;4.97;4.57;;;8.90;1.00;;;;;;5074283;28;20177;-71
2023/05/08 05:07:52;;;;;;;4.03;3.73;;;9.00;1.00;;;;;;5055565;28;20288;-67
2023/05/08 05:10:18;;;;;;;9.33;4.73;;;9.00;1.00;;;;;;5072922;28;20628;-67
2023/05/08 05:12:44;;;;;;;5.77;5.27;;;9.10;1.00;;;;;;5055913;28;20194;-71
2023/05/08 05:15:10;;;;;;;5.10;4.70;;;9.10;1.00;;;;;;5073657;28;20193;-67
2023/05/08 05:17:36;;;;;;;5.97;4.47;;;9.20;1.00;;;;;;5072871;28;20582;-70
2023/05/08 05:20:01;;;;;;;5.57;5.17;;;9.20;1.00;;;;;;5073608;28;20440;-72
2023/05/08 05:22:27;;;;;;;5.43;5.03;;;9.30;1.00;;;;;;5073123;28;20238;-68
2023/05/08 05:24:53;;;;;;;6.37;5.50;;;9.30;1.00;;;;;;5055173;28;20248;-72
2023/05/08 05:27:19;;;;;;;5.63;5.23;;;9.40;1.00;;;;;;5055773;28;20164;-68
2023/05/08 05:29:45;;;;;;;6.17;5.67;;;9.40;1.00;;;;;;5073387;28;20169;-67
2023/05/08 05:32:11;;;;;;;6.70;6.10;;;9.40;1.00;;;;;;5071907;28;20189;-68
2023/05/08 05:34:50;;;;;;;6.50;5.90;;;9.40;1.00;;;;;;5073540;28;20405;-68
2023/05/08 05:37:15;;;;;;;6.23;5.70;;;9.50;1.00;;;;;;5074017;28;20569;-72
2023/05/08 05:39:41;;;;;;;8.50;6.53;;;9.60;1.00;;;;;;5073677;28;20372;-67
2023/05/08 05:42:07;;;;;;;6.20;5.70;;;9.60;1.00;;;;;;5072641;28;20512;-67
2023/05/08 05:44:32;;;;;;;8.03;6.77;;;9.70;1.00;;;;;;5073491;28;20408;-68
2023/05/08 05:46:58;;;;;;;6.20;5.47;;;9.60;1.00;;;;;;5070770;28;20176;-72
2023/05/08 05:49:24;;;;;;;5.60;5.10;;;9.70;1.00;;;;;;5073654;28;20175;-72
2023/05/08 05:51:49;;;;;;;5.97;5.50;;;9.80;1.00;;;;;;5072487;28;20666;-70
2023/05/08 05:54:15;;;;;;;6.67;5.80;;;9.80;1.00;;;;;;5073658;28;20685;-71
2023/05/08 05:56:41;;;;;;;6.33;5.73;;;9.80;1.00;;;;;;5073315;28;20178;-72
2023/05/08 05:59:07;;;;;;;5.90;5.40;;;9.70;1.00;;;;;;5073624;28;20192;-72
2023/05/08 06:01:33;;;;;;;6.07;5.57;;;9.80;1.00;;;;;;5071622;28;20446;-70
2023/05/08 06:03:59;;;;;;;6.40;5.80;;;9.80;1.00;;;;;;5073007;28;20431;-68
2023/05/08 06:06:25;;;;;;;6.30;5.80;;;9.80;1.00;;;;;;5073428;28;20386;-68
2023/05/08 06:08:50;;;;;;;9.17;5.30;;;9.80;1.00;;;;;;5073247;28;20181;-68
2023/05/08 06:11:16;;;;;;;5.83;5.23;;;9.80;1.00;;;;;;5072375;28;20181;-72
2023/05/08 06:13:42;;;;;;;6.47;5.80;;;9.90;1.00;;;;;;5073162;28;20244;-72
2023/05/08 06:16:08;;;;;;;6.23;5.73;;;9.90;1.00;;;;;;5072386;28;20442;-72
2023/05/08 06:18:34;;;;;;;8.30;7.00;;;9.90;1.00;;;;;;5073154;28;20761;-68
2023/05/08 06:21:00;;;;;;;7.30;6.70;;;9.90;1.00;;;;;;5071747;28;20199;-68
2023/05/08 06:23:26;;;;;;;6.23;5.83;;;9.90;1.00;;;;;;5073042;28;20190;-68
2023/05/08 06:25:52;;;;;;;6.60;6.10;;;10.00;1.00;;;;;;5073210;28;20173;-72
2023/05/08 06:28:22;;;;;;;9.30;7.00;;;10.00;1.00;;;;;;5073197;28;20398;-72
2023/05/08 06:30:48;;;;;;;8.87;6.40;;;10.00;1.00;;;;;;5071534;28;20453;-73
2023/05/08 06:33:14;;;;;;;6.90;6.40;;;10.10;1.00;;;;;;5055024;28;20410;-72
2023/05/08 06:35:39;;;;;;;7.33;6.37;;;10.10;1.00;;;;;;5074022;28;20406;-72
2023/05/08 06:38:05;;;;;;;7.70;6.90;;;10.10;1.00;;;;;;5076829;28;20234;-73
2023/05/08 06:40:31;;;;;;;8.03;7.20;;;10.10;1.00;;;;;;5075479;28;20286;-68
2023/05/08 06:42:57;;;;;;;9.33;7.10;;;10.10;1.00;;;;;;5076918;28;20204;-68
2023/05/08 06:45:22;;;;;;;7.87;7.00;;;10.10;1.00;;;;;;5076836;28;20311;-72
2023/05/08 06:47:48;;;;;;;8.13;6.90;;;10.20;1.00;;;;;;5077132;28;20242;-68
2023/05/08 06:50:14;;;;;;;8.53;6.43;;;10.30;1.00;;;;;;5076150;28;20248;-72
2023/05/08 06:52:40;;;;;;;6.53;5.93;;;10.20;1.00;;;;;;5076654;28;20246;-69
2023/05/08 06:55:06;;;;;;;6.97;6.30;;;10.30;1.00;;;;;;5075583;28;20184;-73
2023/05/08 06:57:32;;;;;;;7.10;6.50;;;10.30;1.00;;;;;;5058823;28;20178;-73
2023/05/08 06:59:57;;;;;;;7.00;6.40;;;10.30;1.00;;;;;;5076167;28;20412;-68
2023/05/08 07:02:23;;;;;;;11.20;5.73;;;10.40;1.00;;;;;;5057930;28;20217;-72
2023/05/08 07:04:49;;;;;;;8.53;6.90;;;10.40;1.00;;;;;;5076633;28;20400;-72
2023/05/08 07:07:15;;;;;;;7.10;6.50;;;10.50;1.00;;;;;;5076487;28;20269;-71
2023/05/08 07:09:40;;;;;;;7.07;6.37;;;10.50;1.00;;;;;;5060428;28;20183;-69
2023/05/08 07:15:10;;;;;;;6.30;5.80;;;10.60;1.00;;;;;;5056181;28;20193;-72
2023/05/08 07:17:36;;;;;;;7.60;6.77;;;10.80;1.00;;;;;;5056284;28;20410;-73
2023/05/08 07:20:03;;;;;;;6.80;6.20;;;10.80;1.00;;;;;;5056037;28;20387;-69
2023/05/08 07:22:29;;;;;;;7.23;6.17;;;10.90;1.00;;;;;;5037754;28;20442;-73
2023/05/08 07:24:56;;;;;;;6.83;6.23;;;10.90;1.00;;;;;;5076033;28;20407;-68
2023/05/08 07:27:21;;;;;;;5.67;5.10;;;11.00;1.00;;;;;;5075511;28;20400;-68
2023/05/08 07:29:47;;;;;;;5.57;5.17;;;11.10;1.00;;;;;;5075958;28;20613;-70
2023/05/08 07:32:14;;;;;;;6.47;5.90;;;11.10;1.00;;;;;;5075237;28;20190;-67
2023/05/08 07:34:39;;;;;;;6.13;5.70;;;11.20;1.00;;;;;;5075291;28;20178;-67
2023/05/08 07:37:05;;;;;;;6.43;5.93;;;11.30;1.00;;;;;;5058274;28;20449;-71
2023/05/08 07:39:31;;;;;;;5.83;5.43;;;11.40;1.00;;;;;;5075686;28;20174;-72
2023/05/08 07:41:56;;;;;;;6.80;6.20;;;11.50;1.00;;;;;;5074758;28;20245;-70
2023/05/08 07:44:22;;;;;;;6.63;5.83;;;11.60;1.00;;;;;;5075368;28;20163;-68
2023/05/08 07:46:48;;;;;;;6.57;6.07;;;11.60;1.00;;;;;;5075823;28;20182;-67
2023/05/08 07:49:13;;;;;;;7.33;5.10;;;11.60;1.00;;;;;;5052689;28;20540;-71
2023/05/08 07:51:40;;;;;;;6.83;5.63;;;11.70;1.00;;;;;;5054502;28;20182;-68
2023/05/08 07:54:05;;;;;;;6.20;5.60;;;11.70;1.00;;;;;;5065667;28;20204;-70
2023/05/08 07:56:31;;;;;;;5.47;5.07;;;11.80;1.00;;;;;;5075314;28;20403;-67
2023/05/08 07:58:57;;;;;;;5.60;5.10;;;11.90;1.00;;;;;;5075671;28;20181;-70
2023/05/08 08:01:22;;;;;;;5.90;5.30;;;11.90;1.00;;;;;;5074320;28;20202;-70
2023/05/08 08:03:48;;;;;;;6.53;5.93;;;12.00;1.00;;;;;;5057641;28;20200;-70
2023/05/08 08:06:14;;;;;;;5.30;4.80;;;12.20;1.00;;;;;;5075616;28;20527;-68
2023/05/08 08:08:40;;;;;;;5.07;4.73;;;12.30;1.00;;;;;;5075434;28;20224;-70
2023/05/08 08:11:06;;;;;;;5.93;5.40;;;12.30;1.00;;;;;;5068279;28;20183;-69
2023/05/08 08:13:32;;;;;;;5.80;5.40;;;12.40;1.00;;;;;;5055185;28;20191;-68
2023/05/08 08:15:59;;;;;;;5.40;4.97;;;12.40;1.00;;;;;;5054571;28;20519;-71
2023/05/08 08:18:24;;;;;;;5.43;5.03;;;12.50;1.00;;;;;;5055225;28;20388;-67
2023/05/08 08:21:06;;;;;;;5.43;4.93;;;12.60;1.00;;;;;;5070377;28;20460;-68
2023/05/08 08:23:35;;;;;;;5.33;4.93;;;12.70;1.00;;;;;;5057860;28;20195;-70
2023/05/08 08:26:01;;;;;;;6.63;5.47;;;12.80;1.00;;;;;;5054694;28;20418;-69
2023/05/08 08:28:36;;;;;;;5.03;4.63;;;12.90;1.00;;;;;;5055048;28;20404;-68
2023/05/08 08:31:19;;;;;;;4.63;4.33;;;13.00;1.00;;;;;;5053957;28;20438;-67
2023/05/08 08:33:51;;;;;;;4.47;4.17;;;13.00;1.00;;;;;;5067903;28;20426;-70
2023/05/08 08:39:33;;;;;;;3.90;3.70;;;13.40;1.00;;;;;;5074716;28;20478;-69
2023/05/08 08:45:42;;;;;;;5.33;3.97;;;13.80;1.00;;;;;;5074557;28;20423;-68
2023/05/08 08:48:11;;;;;;;4.90;4.40;;;14.00;1.00;;;;;;5056319;28;20432;-68
2023/05/08 08:50:42;;;;;;;4.40;4.00;;;14.20;1.00;;;;;;5073828;28;20903;-70
2023/05/08 08:53:18;;;;;;;3.87;3.57;;;14.40;1.00;;;;;;5074483;28;20424;-67
2023/05/08 08:55:49;;;;;;;3.87;3.57;;;14.50;1.00;;;;;;5056846;28;20416;-68
2023/05/08 08:58:17;;;;;;;4.13;3.83;;;14.70;1.00;;;;;;5074379;28;20406;-71
2023/05/08 09:01:03;;;;;;;;;;;;;;;;;;;;;
2023/05/08 09:03:33;;;;;;;3.70;3.40;;;15.20;1.00;;;;;;5074063;28;20440;-73
2023/05/08 09:06:08;;;;;;;3.47;3.17;;;15.50;1.00;;;;;;5074199;28;20401;-68
2023/05/08 09:08:40;;;;;;;3.83;3.50;;;15.70;1.00;;;;;;5056546;28;20416;-68
2023/05/08 09:11:06;;;;;;;3.80;3.50;;;15.90;1.00;;;;;;5073370;28;20387;-70
2023/05/08 09:13:50;;;;;;;3.83;3.57;;;16.00;1.00;;;;;;5071168;28;20900;-71
2023/05/08 09:16:17;;;;;;;8.80;3.77;;;15.90;1.00;;;;;;5053571;28;20185;-70
2023/05/08 09:18:43;;;;;;;3.53;3.00;;;16.00;1.00;;;;;;5061035;28;20460;-71
2023/05/08 09:21:48;;;;;;;2.97;2.77;;;16.30;1.00;;;;;;5073012;28;20448;-71
2023/05/08 09:24:23;;;;;;;3.60;3.30;;;16.50;1.00;;;;;;5050992;28;20444;-69
2023/05/08 09:26:49;;;;;;;3.20;3.00;;;16.70;1.00;;;;;;5073380;28;20490;-70
2023/05/08 09:29:23;;;;;;;2.87;2.67;;;16.90;1.00;;;;;;5073345;28;20592;-70
2023/05/08 09:31:51;;;;;;;3.13;2.93;;;17.20;1.00;;;;;;5071763;28;20470;-71
2023/05/08 09:34:50;;;;;;;2.90;2.60;;;17.50;1.00;;;;;;5072370;28;20437;-70
2023/05/08 09:37:16;;;;;;;10.63;3.47;;;17.70;1.00;;;;;;5071959;28;20428;-70
2023/05/08 09:39:44;;;;;;;7.00;4.63;;;17.80;1.00;;;;;;5055270;28;20905;-73
2023/05/08 09:42:10;;;;;;;3.60;3.27;;;18.00;1.00;;;;;;5072264;28;20701;-71
2023/05/08 09:44:52;;;;;;;2.80;2.60;;;18.20;1.00;;;;;;5072309;28;20443;-70
2023/05/08 09:47:24;;;;;;;2.77;2.57;;;18.30;1.00;;;;;;5073104;28;20194;-70
2023/05/08 09:50:00;;;;;;;2.23;2.13;;;18.50;1.00;;;;;;5073018;28;20404;-71
2023/05/08 09:52:28;;;;;;;2.60;2.50;;;18.70;1.00;;;;;;5072249;28;20442;-70
2023/05/08 09:55:02;;;;;;;2.90;2.70;;;19.20;99.90;;;;;;5072606;28;20447;-73
2023/05/08 09:57:41;;;;;;;;;;;;;;;;;;;;;
2023/05/08 10:00:11;;;;;;;2.40;2.20;;;19.60;99.90;;;;;;5071596;28;20424;-70
2023/05/08 10:02:39;;;;;;;14.40;2.53;;;19.60;99.90;;;;;;5055166;28;20987;-70
2023/05/08 10:05:23;;;;;;;2.13;1.83;;;19.70;99.90;;;;;;5072894;28;20480;-71
2023/05/08 10:07:48;;;;;;;2.13;1.90;;;19.90;99.90;;;;;;5072837;28;20384;-71
2023/05/08 10:10:29;;;;;;;2.43;2.33;;;20.20;99.90;;;;;;5071891;28;20447;-70
2023/05/08 10:13:01;;;;;;;2.87;2.40;;;20.30;99.90;;;;;;5071362;28;20311;-72
2023/05/08 10:15:39;;;;;;;2.40;2.17;;;20.20;99.90;;;;;;5072808;28;20416;-72
2023/05/08 10:18:07;;;;;;;2.63;2.40;;;19.90;99.90;;;;;;5072775;28;20494;-73
2023/05/08 10:20:38;;;;;;;2.53;2.20;;;20.20;99.90;;;;;;5071872;28;20499;-72
2023/05/08 10:23:10;;;;;;;2.70;2.50;;;20.10;99.90;;;;;;5072703;28;20424;-72
2023/05/08 10:25:51;;;;;;;4.10;2.10;;;20.60;99.90;;;;;;5055038;28;20905;-71
2023/05/08 10:28:31;;;;;;;2.00;1.80;;;20.90;99.90;;;;;;5072190;28;20943;-70
2023/05/08 10:31:00;;;;;;;2.77;2.43;;;21.10;99.90;;;;;;5071589;28;20415;-71
2023/05/08 10:33:32;;;;;;;2.60;1.87;;;21.10;99.90;;;;;;5071294;28;20444;-71
2023/05/08 10:35:59;;;;;;;2.40;2.20;;;21.30;99.90;;;;;;5054973;28;20968;-71
2023/05/08 10:38:26;;;;;;;3.33;1.70;;;21.30;99.90;;;;;;5054727;28;20834;-72
2023/05/08 10:40:56;;;;;;;2.30;1.70;;;21.50;99.90;;;;;;5071656;28;20444;-71
2023/05/08 10:43:23;;;;;;;1.90;1.70;;;21.60;99.90;;;;;;5072570;28;20404;-73
2023/05/08 10:45:51;;;;;;;2.27;1.80;;;21.60;99.90;;;;;;5054680;28;20404;-71
2023/05/08 10:48:35;;;;;;;2.47;1.63;;;21.40;99.90;;;;;;5071872;28;20515;-72
2023/05/08 10:51:17;;;;;;;1.80;1.70;;;21.30;99.90;;;;;;5070989;28;20424;-71
2023/05/08 10:54:03;;;;;;;1.83;1.73;;;21.70;99.90;;;;;;5072638;28;20434;-72
2023/05/08 10:56:29;;;;;;;4.83;1.30;;;21.80;99.90;;;;;;5054773;28;20416;-71
2023/05/08 10:58:56;;;;;;;2.10;2.00;;;21.80;99.90;;;;;;5072605;28;20769;-72
2023/05/08 11:01:22;;;;;;;1.83;1.73;;;21.70;99.90;;;;;;5070663;28;20186;-71
2023/05/08 11:03:53;;;;;;;2.47;2.00;;;21.90;99.90;;;;;;5083509;28;20443;-72
2023/05/08 11:06:45;;;;;;;3.40;1.87;;;22.00;99.90;;;;;;5092660;28;20963;-71
2023/05/08 11:09:19;;;;;;;1.90;1.70;;;22.10;99.90;;;;;;5092474;28;20403;-72
2023/05/08 11:12:10;;;;;;;2.97;1.50;;;22.40;99.90;;;;;;5091316;28;20461;-70
2023/05/08 11:14:41;;;;;;;1.63;1.53;;;22.50;99.90;;;;;;5060543;28;20464;-71
2023/05/08 11:17:08;;;;;;;1.43;1.30;;;22.90;99.90;;;;;;5071182;28;20449;-72
2023/05/08 11:19:34;;;;;;;1.67;1.57;;;22.90;99.90;;;;;;5052382;28;20444;-71
2023/05/08 11:22:15;;;;;;;2.47;1.90;;;22.90;99.90;;;;;;5051250;28;20476;-71
2023/05/08 11:24:54;;;;;;;2.00;1.70;;;22.90;99.90;;;;;;5055868;28;20385;-73
2023/05/08 11:27:32;;;;;;;2.70;2.20;;;22.60;99.90;;;;;;5061743;28;20416;-72
2023/05/08 11:30:17;;;;;;;2.23;1.90;;;22.60;99.90;;;;;;5074898;28;20392;-72
2023/05/08 11:33:06;;;;;;;2.20;1.70;;;22.60;99.90;;;;;;5075656;28;20896;-72
2023/05/08 11:35:48;;;;;;;1.90;1.70;;;22.70;99.90;;;;;;5064941;28;20418;-71
2023/05/08 11:38:18;;;;;;;3.27;1.80;;;23.00;99.90;;;;;;5075447;28;20793;-72
2023/05/08 11:40:44;;;;;;;2.33;1.50;;;23.30;99.90;;;;;;5074651;28;20440;-72
2023/05/08 11:43:32;;;;;;;2.27;2.10;;;23.40;99.90;;;;;;5074484;28;20948;-72
2023/05/08 11:46:07;;;;;;;2.20;1.90;;;23.90;99.90;;;;;;5074800;28;20613;-71
2023/05/08 11:48:33;;;;;;;2.20;2.00;;;23.60;99.90;;;;;;5075411;28;20412;-71
2023/05/08 11:51:00;;;;;;;2.17;1.97;;;23.50;99.90;;;;;;5074851;28;20437;-71
2023/05/08 11:53:27;;;;;;;2.37;2.00;;;23.70;99.90;;;;;;5075356;28;20943;-71
2023/05/08 11:55:53;;;;;;;2.93;1.90;;;24.20;99.90;;;;;;5074683;28;20389;-71
2023/05/08 11:58:20;;;;;;;2.20;2.00;;;24.00;99.90;;;;;;5075496;28;20396;-72
2023/05/08 12:00:47;;;;;;;2.40;2.20;;;24.00;99.90;;;;;;5056335;28;20448;-72
2023/05/08 12:03:15;;;;;;;3.23;1.97;;;24.10;99.90;;;;;;5074074;28;20454;-71
2023/05/08 12:05:41;;;;;;;1.90;1.80;;;24.40;99.90;;;;;;5074206;28;20431;-72
2023/05/08 12:08:09;;;;;;;3.40;2.00;;;24.60;99.90;;;;;;5075090;28;20488;-71
2023/05/08 12:10:48;;;;;;;3.43;2.00;;;24.80;99.90;;;;;;5072215;28;20751;-70
2023/05/08 12:13:24;;;;;;;3.80;2.10;;;24.70;99.90;;;;;;5074829;28;20812;-71
2023/05/08 12:15:52;;;;;;;2.30;2.10;;;24.30;99.90;;;;;;5056842;28;20416;-73
2023/05/08 12:18:19;;;;;;;2.40;2.20;;;24.20;99.90;;;;;;5075002;28;20401;-72
2023/05/08 12:20:45;;;;;;;3.20;2.00;;;24.40;99.90;;;;;;5071505;28;20452;-73
2023/05/08 12:23:11;;;;;;;2.03;1.90;;;24.30;99.90;;;;;;5074372;28;20420;-71
2023/05/08 12:25:38;;;;;;;1.90;1.80;;;24.10;99.90;;;;;;5074759;28;20429;-73
2023/05/08 12:28:08;;;;;;;2.60;2.40;;;23.80;99.90;;;;;;5074662;28;20403;-73
2023/05/08 12:30:36;;;;;;;2.20;2.00;;;23.40;99.90;;;;;;5073579;28;20408;-71
2023/05/08 12:33:04;;;;;;;2.57;2.37;;;23.30;99.90;;;;;;5074399;28;20416;-72
2023/05/08 12:35:31;;;;;;;1.93;1.83;;;23.20;99.90;;;;;;5073628;28;20416;-72
2023/05/08 12:38:10;;;;;;;2.40;2.20;;;23.20;99.90;;;;;;5074434;28;20904;-71
2023/05/08 12:40:54;;;;;;;2.50;2.30;;;22.70;99.90;;;;;;5072865;28;20800;-71
2023/05/08 12:43:29;;;;;;;2.77;2.10;;;22.40;99.90;;;;;;5071847;28;20448;-72
2023/05/08 12:45:55;;;;;;;2.57;2.37;;;22.40;99.90;;;;;;5074040;28;21155;-71
2023/05/08 12:48:21;;;;;;;2.83;2.63;;;22.40;99.90;;;;;;5073813;28;20901;-70
2023/05/08 12:50:47;;;;;;;2.60;2.40;;;22.20;99.90;;;;;;5073160;28;20416;-72
2023/05/08 12:53:15;;;;;;;2.40;2.20;;;22.30;99.90;;;;;;5074114;28;20233;-71
2023/05/08 12:55:53;;;;;;;3.10;2.77;;;22.30;99.90;;;;;;5074149;28;20166;-71
2023/05/08 13:01:53;;;;;;;3.33;2.97;;;22.50;99.90;;;;;;4992625;28;20546;-72
2023/05/08 13:04:22;;;;;;;4.80;2.67;;;22.30;99.90;;;;;;4975713;28;20428;-72
2023/05/08 13:06:54;;;;;;;6.03;2.40;;;22.30;99.90;;;;;;5045026;28;20492;-72
2023/05/08 13:09:23;;;;;;;5.40;2.30;;;22.40;99.90;;;;;;5053982;28;20451;-71
2023/05/08 13:11:49;;;;;;;2.33;1.90;;;22.60;99.90;;;;;;5052983;28;20440;-73
2023/05/08 13:14:15;;;;;;;2.90;2.43;;;22.70;99.90;;;;;;5053276;28;20467;-73
2023/05/08 13:16:45;;;;;;;2.93;2.50;;;23.10;99.90;;;;;;5053494;28;20193;-73
2023/05/08 13:19:10;;;;;;;2.53;2.03;;;23.40;99.90;;;;;;5063762;28;20178;-72
2023/05/08 13:21:36;;;;;;;3.10;2.00;;;23.60;99.90;;;;;;5072738;28;20480;-73
2023/05/08 13:24:02;;;;;;;4.43;2.30;;;23.60;99.90;;;;;;5073500;28;20852;-73
2023/05/08 13:26:27;;;;;;;2.47;2.27;;;23.90;99.90;;;;;;5055881;28;20535;-72
2023/05/08 13:28:53;;;;;;;2.13;1.93;;;24.20;99.90;;;;;;5073735;28;20194;-73
2023/05/08 13:31:19;;;;;;;3.33;1.87;;;24.00;99.90;;;;;;5072660;28;20170;-71